Time;durP1;ratioP1;P1;durP2;ratioP2;P2;SDS_P1;SDS_P2;PMS_P1;PMS_P2;Temp;Humidity;BMP_temperature;BMP_pressure;BME280_temperature;BME280_humidity;BME280_pressure;Samples;Min_cycle;Max_cycle;Signal;HPM_P1;HPM_P2
2023/09/04 00:00:35;;;;;;;0.50;0.50;;;14.40;99.90;;;;;;5054068;28;20553;-80
2023/09/04 00:03:02;;;;;;;0.50;0.40;;;14.40;99.90;;;;;;5053645;28;20447;-80
2023/09/04 00:05:32;;;;;;;0.50;0.40;;;14.40;99.90;;;;;;5053955;28;20486;-80
2023/09/04 00:07:59;;;;;;;0.50;0.40;;;14.40;99.90;;;;;;5054400;28;20535;-81
2023/09/04 00:10:26;;;;;;;0.50;0.40;;;14.40;99.90;;;;;;5052995;28;20463;-80
2023/09/04 00:12:54;;;;;;;0.77;0.77;;;14.30;99.90;;;;;;5054056;28;20472;-80
2023/09/04 00:15:21;;;;;;;0.50;0.40;;;14.30;99.90;;;;;;5053549;28;20439;-80
2023/09/04 00:17:49;;;;;;;1.07;1.07;;;14.30;99.90;;;;;;5054103;28;20527;-80
2023/09/04 00:20:16;;;;;;;0.50;0.40;;;14.30;99.90;;;;;;5053295;28;20464;-80
2023/09/04 00:22:43;;;;;;;0.50;0.40;;;14.20;99.90;;;;;;5053387;28;20446;-80
2023/09/04 00:25:10;;;;;;;0.50;0.40;;;14.20;99.90;;;;;;5053469;28;20478;-81
2023/09/04 00:27:37;;;;;;;0.50;0.40;;;14.20;99.90;;;;;;5053878;28;20501;-81
2023/09/04 00:30:06;;;;;;;0.50;0.40;;;14.20;99.90;;;;;;5052894;28;20934;-79
2023/09/04 00:32:33;;;;;;;0.50;0.40;;;14.10;99.90;;;;;;5053086;28;20450;-80
2023/09/04 00:35:00;;;;;;;0.50;0.40;;;14.10;99.90;;;;;;5053442;28;20467;-79
2023/09/04 00:37:27;;;;;;;0.50;0.40;;;14.10;99.90;;;;;;5053402;28;20480;-80
2023/09/04 00:39:54;;;;;;;0.50;0.40;;;14.10;99.90;;;;;;5053183;28;20449;-80
2023/09/04 00:42:21;;;;;;;0.50;0.40;;;14.10;99.90;;;;;;5052714;28;20531;-80
2023/09/04 00:44:50;;;;;;;0.50;0.40;;;14.10;99.90;;;;;;5053670;28;20516;-81
2023/09/04 00:47:20;;;;;;;0.50;0.40;;;14.10;99.90;;;;;;5054292;28;20497;-80
2023/09/04 00:49:48;;;;;;;0.50;0.40;;;14.10;99.90;;;;;;5056189;28;20937;-80
2023/09/04 00:52:16;;;;;;;0.50;0.40;;;14.00;99.90;;;;;;5054356;28;20459;-81
2023/09/04 00:54:43;;;;;;;0.50;0.40;;;14.00;99.90;;;;;;5053592;28;20442;-80
2023/09/04 00:57:12;;;;;;;0.50;0.40;;;14.00;99.90;;;;;;5054013;28;20514;-82
2023/09/04 00:59:40;;;;;;;0.50;0.40;;;14.00;99.90;;;;;;5055600;28;20982;-80
2023/09/04 01:02:07;;;;;;;0.50;0.40;;;14.00;99.90;;;;;;5055499;28;20522;-80
2023/09/04 01:04:35;;;;;;;0.50;0.40;;;14.00;99.90;;;;;;5055854;28;20510;-78
2023/09/04 01:07:03;;;;;;;0.80;0.80;;;14.00;99.90;;;;;;5057096;28;20444;-80
2023/09/04 01:09:30;;;;;;;0.50;0.40;;;14.00;99.90;;;;;;5056456;28;20502;-80
2023/09/04 01:12:03;;;;;;;0.50;0.40;;;13.90;99.90;;;;;;5056268;28;20470;-80
2023/09/04 01:14:30;;;;;;;0.50;0.40;;;13.90;99.90;;;;;;5056167;28;20523;-80
2023/09/04 01:16:58;;;;;;;0.50;0.40;;;13.90;99.90;;;;;;5056367;28;20539;-80
2023/09/04 01:19:26;;;;;;;0.50;0.40;;;13.80;99.90;;;;;;5054861;28;20530;-81
2023/09/04 01:21:55;;;;;;;0.50;0.40;;;13.80;99.90;;;;;;5052726;28;20480;-80
2023/09/04 01:24:21;;;;;;;0.50;0.40;;;13.80;99.90;;;;;;5052394;28;20522;-80
2023/09/04 01:26:54;;;;;;;0.50;0.40;;;13.80;99.90;;;;;;5052928;28;20485;-80
2023/09/04 01:29:30;;;;;;;0.50;0.40;;;13.80;99.90;;;;;;5052407;28;20520;-80
2023/09/04 01:32:02;;;;;;;0.50;0.40;;;13.80;99.90;;;;;;5052459;28;20907;-80
2023/09/04 01:34:31;;;;;;;0.50;0.40;;;13.80;99.90;;;;;;5052722;28;20506;-80
2023/09/04 01:37:01;;;;;;;0.50;0.40;;;13.70;99.90;;;;;;5053431;28;20449;-80
2023/09/04 01:39:28;;;;;;;0.50;0.40;;;13.70;99.90;;;;;;5056277;28;20575;-80
2023/09/04 01:41:56;;;;;;;0.50;0.37;;;13.70;99.90;;;;;;5055759;28;20470;-80
2023/09/04 01:44:23;;;;;;;0.50;0.40;;;13.70;99.90;;;;;;5054044;28;20507;-79
2023/09/04 01:46:50;;;;;;;0.50;0.40;;;13.70;99.90;;;;;;5054957;28;20486;-80
2023/09/04 01:49:17;;;;;;;0.50;0.50;;;13.70;99.90;;;;;;5055420;28;21001;-80
2023/09/04 01:51:44;;;;;;;0.50;0.40;;;13.70;99.90;;;;;;5055146;28;20549;-79
2023/09/04 01:54:12;;;;;;;0.50;0.40;;;13.60;99.90;;;;;;5056802;28;20455;-80
2023/09/04 01:56:39;;;;;;;0.50;0.40;;;13.60;99.90;;;;;;5039864;28;20448;-79
2023/09/04 01:59:06;;;;;;;0.50;0.40;;;13.60;99.90;;;;;;5056079;28;20489;-79
2023/09/04 02:01:32;;;;;;;4.93;4.73;;;13.60;99.90;;;;;;5055527;28;21089;-80
2023/09/04 02:03:59;;;;;;;0.50;0.40;;;13.50;99.90;;;;;;5053872;28;20445;-78
2023/09/04 02:06:29;;;;;;;0.50;0.40;;;13.50;99.90;;;;;;5054802;28;20582;-79
2023/09/04 02:08:55;;;;;;;0.50;0.40;;;13.50;99.90;;;;;;5054664;28;20482;-79
2023/09/04 02:11:24;;;;;;;0.50;0.40;;;13.50;99.90;;;;;;5054246;28;20470;-80
2023/09/04 02:13:51;;;;;;;0.50;0.40;;;13.50;99.90;;;;;;5055440;28;21049;-80
2023/09/04 02:16:17;;;;;;;0.50;0.50;;;13.50;99.90;;;;;;5055381;28;20446;-80
2023/09/04 02:18:44;;;;;;;0.50;0.40;;;13.50;99.90;;;;;;5055535;28;20553;-80
2023/09/04 02:21:11;;;;;;;0.50;0.30;;;13.40;99.90;;;;;;5054824;28;20469;-80
2023/09/04 02:23:38;;;;;;;0.50;0.40;;;13.40;99.90;;;;;;5054897;28;20543;-80
2023/09/04 02:26:05;;;;;;;0.50;0.40;;;13.40;99.90;;;;;;5054616;28;20472;-79
2023/09/04 02:28:33;;;;;;;0.50;0.40;;;13.40;99.90;;;;;;5054550;28;21022;-80
2023/09/04 02:31:06;;;;;;;0.50;0.40;;;13.40;99.90;;;;;;5054315;28;20904;-80
2023/09/04 02:33:33;;;;;;;0.50;0.40;;;13.40;99.90;;;;;;5054695;28;20453;-79
2023/09/04 02:36:00;;;;;;;0.50;0.40;;;13.30;99.90;;;;;;5054572;28;20531;-80
2023/09/04 02:38:27;;;;;;;0.50;0.40;;;13.30;99.90;;;;;;5054010;28;20443;-80
2023/09/04 02:40:53;;;;;;;0.50;0.40;;;13.30;99.90;;;;;;5054154;28;20468;-80
2023/09/04 02:43:20;;;;;;;0.50;0.40;;;13.30;99.90;;;;;;5053832;28;20445;-80
2023/09/04 02:45:48;;;;;;;0.50;0.40;;;13.30;99.90;;;;;;5054049;28;20476;-80
2023/09/04 02:48:15;;;;;;;0.50;0.40;;;13.30;99.90;;;;;;5054216;28;20436;-79
2023/09/04 02:50:42;;;;;;;0.50;0.40;;;13.30;99.90;;;;;;5038006;28;20494;-79
2023/09/04 02:53:09;;;;;;;0.50;0.40;;;13.30;99.90;;;;;;5054062;28;20434;-80
2023/09/04 02:55:36;;;;;;;0.50;0.40;;;13.30;99.90;;;;;;5054008;28;20434;-80
2023/09/04 02:58:03;;;;;;;0.50;0.40;;;13.20;99.90;;;;;;5054485;28;20930;-80
2023/09/04 03:00:30;;;;;;;0.50;0.40;;;13.20;99.90;;;;;;5053485;28;20474;-80
2023/09/04 03:02:58;;;;;;;0.50;0.40;;;13.20;99.90;;;;;;5054015;28;20469;-79
2023/09/04 03:05:27;;;;;;;0.50;0.40;;;13.20;99.90;;;;;;5053688;28;20925;-80
2023/09/04 03:07:54;;;;;;;0.50;0.40;;;13.20;99.90;;;;;;5054057;28;20430;-80
2023/09/04 03:10:20;;;;;;;0.50;0.40;;;13.20;99.90;;;;;;5053392;28;20464;-79
2023/09/04 03:12:47;;;;;;;0.50;0.40;;;13.10;99.90;;;;;;5054228;28;20444;-80
2023/09/04 03:15:14;;;;;;;0.50;0.40;;;13.10;99.90;;;;;;5053902;28;20453;-80
2023/09/04 03:17:41;;;;;;;0.50;0.40;;;13.10;99.90;;;;;;5052672;28;20430;-80
2023/09/04 03:20:12;;;;;;;0.50;0.40;;;13.10;99.90;;;;;;5053611;28;20462;-80
2023/09/04 03:22:38;;;;;;;0.50;0.40;;;13.10;99.90;;;;;;5054188;28;20487;-80
2023/09/04 03:25:06;;;;;;;0.50;0.40;;;13.10;99.90;;;;;;5054110;28;20874;-80
2023/09/04 03:27:33;;;;;;;0.50;0.40;;;13.00;99.90;;;;;;5053581;28;20535;-80
2023/09/04 03:30:00;;;;;;;0.50;0.40;;;13.00;99.90;;;;;;5053413;28;20450;-80
2023/09/04 03:32:26;;;;;;;0.50;0.40;;;13.00;99.90;;;;;;5053212;28;20890;-80
2023/09/04 03:34:53;;;;;;;0.50;0.40;;;13.00;99.90;;;;;;5053337;28;20478;-79
2023/09/04 03:37:21;;;;;;;0.50;0.40;;;13.00;99.90;;;;;;5052975;28;20449;-80
2023/09/04 03:39:48;;;;;;;0.50;0.40;;;13.00;99.90;;;;;;5045076;28;20438;-80
2023/09/04 03:42:15;;;;;;;0.50;0.40;;;13.00;99.90;;;;;;5052870;28;20558;-80
2023/09/04 03:44:42;;;;;;;0.50;0.40;;;12.90;99.90;;;;;;5052627;28;20869;-82
2023/09/04 03:47:10;;;;;;;0.50;0.40;;;12.90;99.90;;;;;;5053356;28;20557;-80
2023/09/04 03:49:37;;;;;;;0.50;0.40;;;12.90;99.90;;;;;;5054049;28;20534;-81
2023/09/04 03:52:04;;;;;;;0.50;0.40;;;12.90;99.90;;;;;;5053725;28;20535;-80
2023/09/04 03:54:33;;;;;;;0.50;0.40;;;12.90;99.90;;;;;;5052720;28;20530;-81
2023/09/04 03:56:59;;;;;;;0.60;0.60;;;12.90;99.90;;;;;;5053267;28;20453;-80
2023/09/04 03:59:26;;;;;;;0.50;0.40;;;12.90;99.90;;;;;;5052655;28;20445;-81
2023/09/04 04:01:53;;;;;;;0.50;0.40;;;12.90;99.90;;;;;;5052998;28;20898;-81
2023/09/04 04:04:20;;;;;;;0.50;0.40;;;12.80;99.90;;;;;;5052764;28;20945;-81
2023/09/04 04:06:47;;;;;;;0.50;0.40;;;12.80;99.90;;;;;;5052459;28;20482;-81
2023/09/04 04:09:15;;;;;;;0.50;0.40;;;12.80;99.90;;;;;;5052468;28;20435;-81
2023/09/04 04:11:44;;;;;;;5.13;4.83;;;12.70;99.90;;;;;;5052106;28;20480;-81
2023/09/04 04:14:11;;;;;;;0.50;0.40;;;12.70;99.90;;;;;;5052494;28;20535;-80
2023/09/04 04:16:37;;;;;;;0.50;0.50;;;12.70;99.90;;;;;;5052874;28;20874;-81
2023/09/04 04:19:04;;;;;;;0.50;0.40;;;12.70;99.90;;;;;;5052539;28;20542;-80
2023/09/04 04:21:30;;;;;;;0.50;0.40;;;12.70;99.90;;;;;;5051700;28;20468;-81
2023/09/04 04:23:57;;;;;;;0.50;0.40;;;12.60;99.90;;;;;;5052311;28;21117;-80
2023/09/04 04:26:24;;;;;;;0.50;0.40;;;12.60;99.90;;;;;;5052166;28;20483;-80
2023/09/04 04:28:52;;;;;;;0.50;0.40;;;12.50;99.90;;;;;;5037024;28;20511;-80
2023/09/04 04:31:19;;;;;;;0.50;0.40;;;12.50;99.90;;;;;;5052311;28;20459;-79
2023/09/04 04:33:46;;;;;;;0.50;0.40;;;12.50;99.90;;;;;;5052396;28;20445;-79
2023/09/04 04:36:13;;;;;;;0.50;0.40;;;12.50;99.90;;;;;;5052622;28;20507;-78
2023/09/04 04:38:39;;;;;;;0.50;0.40;;;12.50;99.90;;;;;;5052500;28;20455;-80
2023/09/04 04:41:06;;;;;;;0.50;0.40;;;12.50;99.90;;;;;;5052449;28;20471;-80
2023/09/04 04:43:33;;;;;;;0.50;0.40;;;12.50;99.90;;;;;;5053055;28;20435;-79
2023/09/04 04:46:01;;;;;;;0.50;0.40;;;12.50;99.90;;;;;;5053376;28;20486;-79
2023/09/04 04:48:28;;;;;;;0.50;0.40;;;12.50;99.90;;;;;;5052901;28;21011;-78
2023/09/04 04:50:55;;;;;;;0.50;0.40;;;12.50;99.90;;;;;;5053250;28;20543;-80
2023/09/04 04:53:22;;;;;;;0.50;0.40;;;12.50;99.90;;;;;;5052744;28;20482;-79
2023/09/04 04:55:49;;;;;;;0.50;0.40;;;12.40;99.90;;;;;;5052626;28;20436;-79
2023/09/04 04:58:16;;;;;;;0.50;0.40;;;12.40;99.90;;;;;;5052776;28;20440;-79
2023/09/04 05:00:43;;;;;;;0.50;0.40;;;12.40;99.90;;;;;;5052108;28;20483;-79
2023/09/04 05:03:11;;;;;;;2.00;1.90;;;12.40;99.90;;;;;;5052418;28;20445;-79
2023/09/04 05:05:38;;;;;;;0.50;0.40;;;12.50;99.90;;;;;;5052480;28;20450;-79
2023/09/04 05:08:05;;;;;;;0.50;0.40;;;12.50;99.90;;;;;;5052596;28;20506;-79
2023/09/04 05:10:32;;;;;;;0.50;0.40;;;12.50;99.90;;;;;;5052079;28;20835;-79
2023/09/04 05:12:59;;;;;;;0.50;0.40;;;12.50;99.90;;;;;;5053848;28;20442;-80
2023/09/04 05:15:26;;;;;;;0.50;0.40;;;12.60;99.90;;;;;;5054132;28;20454;-79
2023/09/04 05:17:53;;;;;;;0.50;0.40;;;12.50;99.90;;;;;;5052943;28;20433;-79
2023/09/04 05:20:21;;;;;;;0.50;0.40;;;12.50;99.90;;;;;;5053372;28;20491;-79
2023/09/04 05:22:48;;;;;;;0.50;0.40;;;12.60;99.90;;;;;;5052624;28;20450;-79
2023/09/04 05:25:15;;;;;;;0.50;0.40;;;12.60;99.90;;;;;;5053020;28;20531;-80
2023/09/04 05:27:42;;;;;;;0.50;0.50;;;12.60;99.90;;;;;;5052886;28;20558;-80
2023/09/04 05:30:09;;;;;;;0.50;0.40;;;12.70;99.90;;;;;;5053210;28;20467;-80
2023/09/04 05:32:36;;;;;;;0.50;0.40;;;12.70;99.90;;;;;;5052735;28;20891;-81
2023/09/04 05:35:03;;;;;;;0.50;0.40;;;12.80;99.90;;;;;;5053170;28;20474;-79
2023/09/04 05:37:32;;;;;;;0.50;0.40;;;12.90;99.90;;;;;;5053387;28;20532;-79
2023/09/04 05:39:58;;;;;;;0.50;0.40;;;12.90;99.90;;;;;;5038258;28;21005;-80
2023/09/04 05:42:25;;;;;;;0.50;0.40;;;13.00;99.90;;;;;;5057253;28;20441;-80
2023/09/04 05:44:52;;;;;;;0.50;0.40;;;13.10;99.90;;;;;;5057230;28;20435;-80
2023/09/04 05:47:19;;;;;;;0.50;0.40;;;13.20;99.90;;;;;;5057452;28;20510;-80
2023/09/04 05:49:46;;;;;;;0.50;0.40;;;13.20;99.90;;;;;;5057431;28;20512;-79
2023/09/04 05:52:13;;;;;;;0.50;0.40;;;13.30;99.90;;;;;;5058263;28;20464;-79
2023/09/04 05:54:41;;;;;;;1.17;1.17;;;13.30;99.90;;;;;;5057028;28;20517;-80
2023/09/04 05:57:08;;;;;;;0.50;0.40;;;13.30;99.90;;;;;;5057382;28;20510;-80
2023/09/04 05:59:35;;;;;;;0.50;0.37;;;13.30;99.90;;;;;;5057090;28;20477;-81
2023/09/04 06:02:01;;;;;;;0.50;0.40;;;13.40;99.90;;;;;;5056639;28;20487;-79
2023/09/04 06:04:28;;;;;;;0.50;0.40;;;13.50;99.90;;;;;;5057168;28;20444;-80
2023/09/04 06:06:55;;;;;;;0.50;0.40;;;13.60;99.90;;;;;;5056131;28;20482;-79
2023/09/04 06:09:22;;;;;;;1.10;1.03;;;13.70;99.90;;;;;;5055617;28;20440;-79
2023/09/04 06:11:52;;;;;;;0.50;0.40;;;14.00;99.90;;;;;;5055812;28;20553;-80
2023/09/04 06:14:18;;;;;;;0.50;0.40;;;14.30;99.90;;;;;;5056610;28;20478;-79
2023/09/04 06:16:45;;;;;;;0.50;0.40;;;14.60;99.90;;;;;;5056377;28;20453;-80
2023/09/04 06:19:12;;;;;;;0.50;0.40;;;14.90;99.90;;;;;;5057269;28;20453;-79
2023/09/04 06:21:39;;;;;;;0.50;0.40;;;15.30;99.90;;;;;;5056711;28;20538;-80
2023/09/04 06:24:06;;;;;;;0.50;0.40;;;15.70;99.90;;;;;;5057085;28;20441;-80
2023/09/04 06:26:33;;;;;;;0.50;0.40;;;16.10;99.90;;;;;;5057387;28;20490;-80
2023/09/04 06:29:01;;;;;;;0.60;0.60;;;16.50;99.90;;;;;;5057047;28;20451;-80
2023/09/04 06:31:28;;;;;;;0.50;0.40;;;16.90;99.90;;;;;;5056266;28;20503;-79
2023/09/04 06:33:55;;;;;;;0.50;0.40;;;17.40;99.90;;;;;;5055845;28;20897;-79
2023/09/04 06:36:22;;;;;;;0.60;0.57;;;17.70;99.90;;;;;;5056495;28;20443;-79
2023/09/04 06:38:49;;;;;;;0.50;0.40;;;18.10;99.90;;;;;;5055642;28;20547;-80
2023/09/04 06:41:16;;;;;;;0.67;0.67;;;18.60;99.90;;;;;;5055215;28;20923;-80
2023/09/04 06:43:42;;;;;;;0.50;0.40;;;18.80;99.90;;;;;;5055022;28;20986;-80
2023/09/04 06:46:11;;;;;;;1.07;1.07;;;19.00;99.90;;;;;;5056041;28;20444;-79
2023/09/04 06:48:38;;;;;;;0.60;0.40;;;19.30;99.90;;;;;;5056267;28;20471;-80
2023/09/04 06:51:05;;;;;;;0.50;0.30;;;19.70;99.90;;;;;;5055139;28;20464;-79
2023/09/04 06:53:32;;;;;;;1.07;0.97;;;19.90;99.90;;;;;;5056019;28;20458;-80
2023/09/04 06:55:59;;;;;;;0.50;0.30;;;20.10;99.90;;;;;;5055663;28;20443;-79
2023/09/04 06:58:26;;;;;;;0.50;0.50;;;20.40;99.90;;;;;;5055663;28;20446;-80
2023/09/04 07:00:53;;;;;;;0.50;0.40;;;20.60;99.90;;;;;;5055710;28;21037;-80
2023/09/04 07:03:22;;;;;;;0.50;0.30;;;20.90;99.90;;;;;;5055848;28;20635;-80
2023/09/04 07:05:49;;;;;;;0.50;0.40;;;21.10;99.90;;;;;;5055232;28;20535;-79
2023/09/04 07:08:16;;;;;;;0.70;0.70;;;21.20;99.90;;;;;;5054636;28;20540;-80
2023/09/04 07:10:43;;;;;;;0.50;0.30;;;21.30;99.90;;;;;;5054665;28;20489;-80
2023/09/04 07:13:10;;;;;;;16.13;3.53;;;21.80;99.90;;;;;;5056294;28;21203;-80
2023/09/04 07:15:37;;;;;;;0.60;0.50;;;22.40;99.90;;;;;;5054975;28;20462;-80
2023/09/04 07:18:04;;;;;;;0.50;0.30;;;22.40;99.90;;;;;;5054728;28;20442;-80
2023/09/04 07:20:33;;;;;;;0.50;0.40;;;22.30;99.90;;;;;;5055368;28;20548;-81
2023/09/04 07:23:00;;;;;;;0.50;0.40;;;22.50;99.90;;;;;;5056400;28;20442;-81
2023/09/04 07:25:26;;;;;;;0.50;0.30;;;22.70;99.90;;;;;;5056117;28;20988;-79
2023/09/04 07:27:53;;;;;;;0.50;0.40;;;22.90;99.90;;;;;;5056069;28;20473;-81
2023/09/04 07:30:20;;;;;;;0.50;0.30;;;23.30;99.90;;;;;;5055867;28;20556;-80
2023/09/04 07:32:47;;;;;;;1.17;1.07;;;23.70;99.90;;;;;;5055177;28;20833;-81
2023/09/04 07:35:14;;;;;;;0.50;0.40;;;23.80;99.90;;;;;;5055191;28;20448;-80
2023/09/04 07:37:42;;;;;;;0.50;0.30;;;24.10;99.90;;;;;;5055962;28;20434;-80
2023/09/04 07:40:09;;;;;;;1.43;0.60;;;24.20;99.90;;;;;;5041325;28;20952;-79
2023/09/04 07:42:37;;;;;;;0.50;0.30;;;24.30;99.90;;;;;;5055844;28;20549;-80
2023/09/04 07:45:04;;;;;;;0.50;0.30;;;24.40;99.90;;;;;;5055547;28;20427;-79
2023/09/04 07:47:31;;;;;;;0.50;0.30;;;24.20;99.90;;;;;;5055716;28;20885;-80
2023/09/04 07:49:58;;;;;;;0.50;0.30;;;24.70;99.90;;;;;;5055664;28;20447;-79
2023/09/04 07:52:25;;;;;;;0.50;0.30;;;25.00;99.90;;;;;;5055533;28;20441;-80
2023/09/04 07:54:53;;;;;;;0.50;0.30;;;25.00;99.90;;;;;;5055415;28;20456;-80
2023/09/04 07:57:20;;;;;;;0.80;0.80;;;25.20;99.90;;;;;;5055782;28;20427;-81
2023/09/04 07:59:47;;;;;;;0.50;0.30;;;25.60;99.90;;;;;;5055805;28;20534;-80
2023/09/04 08:02:14;;;;;;;4.53;2.00;;;25.90;99.90;;;;;;5054784;28;20471;-80
2023/09/04 08:04:40;;;;;;;0.50;0.30;;;26.60;99.90;;;;;;5054834;28;20448;-80
2023/09/04 08:07:07;;;;;;;0.50;0.40;;;26.80;99.90;;;;;;5053973;28;20476;-79
2023/09/04 08:09:34;;;;;;;2.03;1.23;;;27.10;99.90;;;;;;5054854;28;20442;-80
2023/09/04 08:12:02;;;;;;;3.80;1.03;;;27.40;99.90;;;;;;5054803;28;20547;-79
2023/09/04 08:14:33;;;;;;;0.50;0.30;;;27.40;99.90;;;;;;5058550;28;20497;-81
2023/09/04 08:17:01;;;;;;;0.50;0.30;;;27.80;99.90;;;;;;5055933;28;20508;-81
2023/09/04 08:19:28;;;;;;;0.50;0.40;;;28.40;99.90;;;;;;5055467;28;20947;-80
2023/09/04 08:21:57;;;;;;;0.50;0.30;;;28.60;99.90;;;;;;5055737;28;20470;-81
2023/09/04 08:24:24;;;;;;;0.50;0.30;;;29.10;99.90;;;;;;5056234;28;20535;-81
2023/09/04 08:26:51;;;;;;;2.57;2.37;;;29.60;99.30;;;;;;5055349;28;20524;-80
2023/09/04 08:29:19;;;;;;;0.50;0.30;;;29.90;98.70;;;;;;5055567;28;20442;-81
2023/09/04 08:31:46;;;;;;;0.50;0.30;;;29.80;93.90;;;;;;5055441;28;20464;-81
2023/09/04 08:34:12;;;;;;;0.50;0.30;;;29.70;95.10;;;;;;5038966;28;20591;-81
2023/09/04 08:36:39;;;;;;;0.50;0.30;;;30.10;94.80;;;;;;5055738;28;20453;-81
2023/09/04 08:39:06;;;;;;;0.50;0.33;;;30.20;92.80;;;;;;5055581;28;20519;-80
2023/09/04 08:41:33;;;;;;;0.50;0.30;;;30.60;91.60;;;;;;5053936;28;20457;-81
2023/09/04 08:44:01;;;;;;;0.50;0.30;;;30.70;92.00;;;;;;5054560;28;20516;-82
2023/09/04 08:46:30;;;;;;;0.50;0.30;;;31.00;93.20;;;;;;5054519;28;20463;-81
2023/09/04 08:49:00;;;;;;;0.60;0.60;;;31.10;91.70;;;;;;5054830;28;20478;-81
2023/09/04 08:51:27;;;;;;;0.50;0.50;;;31.50;88.30;;;;;;5054458;28;20461;-82
2023/09/04 08:53:55;;;;;;;0.50;0.30;;;31.90;89.00;;;;;;5054159;28;20445;-81
2023/09/04 08:56:23;;;;;;;0.50;0.30;;;31.90;86.50;;;;;;5053679;28;20774;-81
2023/09/04 08:58:50;;;;;;;1.90;1.03;;;32.20;85.20;;;;;;5053886;28;20529;-80
2023/09/04 09:01:18;;;;;;;0.97;0.97;;;32.40;83.40;;;;;;5054547;28;20501;-81
2023/09/04 09:03:47;;;;;;;0.50;0.40;;;32.60;81.30;;;;;;5054163;28;20525;-81
2023/09/04 09:06:14;;;;;;;0.50;0.30;;;32.80;79.00;;;;;;5054546;28;20528;-80
2023/09/04 09:08:44;;;;;;;0.50;0.37;;;33.00;80.90;;;;;;5054178;28;20605;-78
2023/09/04 09:11:13;;;;;;;0.50;0.30;;;33.30;80.50;;;;;;5053544;28;20548;-78
2023/09/04 09:13:40;;;;;;;0.50;0.30;;;33.80;80.30;;;;;;5053325;28;20513;-78
2023/09/04 09:16:07;;;;;;;7.83;5.20;;;34.10;76.20;;;;;;5052728;28;20524;-78
2023/09/04 09:18:35;;;;;;;1.50;1.40;;;34.00;78.70;;;;;;5053804;28;21011;-78
2023/09/04 09:21:24;;;;;;;0.40;0.30;;;34.40;73.80;;;;;;5054218;28;20457;-78
2023/09/04 09:24:14;;;;;;;1.37;1.37;;;34.50;70.40;;;;;;5054557;28;20461;-80
2023/09/04 09:26:42;;;;;;;0.40;0.30;;;34.50;74.90;;;;;;5044830;28;20813;-81
2023/09/04 09:29:11;;;;;;;0.50;0.30;;;34.80;71.80;;;;;;5054714;28;20500;-82
2023/09/04 09:31:38;;;;;;;11.40;1.03;;;34.90;71.40;;;;;;5054634;28;20485;-81
2023/09/04 09:34:06;;;;;;;0.40;0.30;;;35.50;73.50;;;;;;5054454;28;20430;-80
2023/09/04 09:36:34;;;;;;;0.40;0.30;;;35.60;65.90;;;;;;5054390;28;20452;-78
2023/09/04 09:39:01;;;;;;;0.40;0.30;;;35.60;64.60;;;;;;5053867;28;20526;-79
2023/09/04 09:41:30;;;;;;;0.40;0.40;;;35.40;64.40;;;;;;5052790;28;20489;-78
2023/09/04 09:44:00;;;;;;;1.83;1.73;;;35.50;68.60;;;;;;5052527;28;20852;-78
2023/09/04 09:46:28;;;;;;;0.40;0.30;;;35.70;70.10;;;;;;5052915;28;20996;-78
2023/09/04 09:48:55;;;;;;;0.40;0.30;;;35.90;68.20;;;;;;5052514;28;20541;-80
2023/09/04 09:51:22;;;;;;;1.43;1.43;;;36.10;67.50;;;;;;5052477;28;20564;-78
2023/09/04 09:53:52;;;;;;;0.40;0.30;;;36.30;66.30;;;;;;5052644;28;20867;-78
2023/09/04 09:56:20;;;;;;;0.40;0.30;;;36.50;66.60;;;;;;5052100;28;20477;-79
2023/09/04 09:58:48;;;;;;;0.40;0.30;;;36.70;64.30;;;;;;5066508;22;20440;-78
2023/09/04 10:01:18;;;;;;;0.40;0.30;;;36.70;67.20;;;;;;5058837;28;20580;-80
2023/09/04 10:03:47;;;;;;;0.50;0.30;;;36.50;60.40;;;;;;5058738;28;20529;-80
2023/09/04 10:06:20;;;;;;;0.40;0.30;;;36.30;64.20;;;;;;5064461;28;20449;-78
2023/09/04 10:08:50;;;;;;;0.40;0.30;;;36.40;62.30;;;;;;5065561;28;20575;-81
2023/09/04 10:11:18;;;;;;;0.40;0.30;;;36.50;61.40;;;;;;5062359;28;20945;-80
2023/09/04 10:13:54;;;;;;;0.40;0.30;;;36.30;60.40;;;;;;5061180;28;20442;-79
2023/09/04 10:16:33;;;;;;;0.40;0.30;;;36.20;60.00;;;;;;5064325;28;20435;-79
2023/09/04 10:19:03;;;;;;;0.40;0.30;;;36.00;61.40;;;;;;5065244;28;20453;-79
2023/09/04 10:21:37;;;;;;;0.40;0.30;;;35.70;59.50;;;;;;5061781;28;21003;-79
2023/09/04 10:24:12;;;;;;;0.40;0.30;;;35.70;59.50;;;;;;5062735;28;20516;-80
2023/09/04 10:26:47;;;;;;;0.40;0.30;;;35.50;59.60;;;;;;5056704;28;20548;-81
2023/09/04 10:29:18;;;;;;;0.40;0.30;;;35.40;60.60;;;;;;5058075;28;20491;-78
2023/09/04 10:31:48;;;;;;;0.40;0.30;;;35.50;63.30;;;;;;5066705;28;20540;-80
2023/09/04 10:34:16;;;;;;;0.40;0.30;;;35.90;64.00;;;;;;5067170;28;20475;-80
2023/09/04 10:36:43;;;;;;;0.40;0.30;;;35.90;61.50;;;;;;5068077;28;20524;-79
2023/09/04 10:39:12;;;;;;;0.40;0.30;;;36.40;64.00;;;;;;5072431;28;20456;-80
2023/09/04 10:41:39;;;;;;;0.40;0.30;;;36.90;61.20;;;;;;5065949;28;20897;-80
2023/09/04 10:44:08;;;;;;;0.40;0.40;;;37.10;58.40;;;;;;5065018;28;20955;-79
2023/09/04 10:46:37;;;;;;;0.40;0.30;;;37.40;59.00;;;;;;5070756;28;20548;-77
2023/09/04 10:49:04;;;;;;;0.50;0.40;;;37.30;59.00;;;;;;5068953;28;20579;-80
2023/09/04 10:51:33;;;;;;;0.40;0.30;;;37.50;57.60;;;;;;5064638;28;20528;-80
2023/09/04 10:54:02;;;;;;;0.40;0.30;;;37.40;57.00;;;;;;5063633;28;20956;-81
2023/09/04 10:56:54;;;;;;;0.40;0.30;;;37.20;58.70;;;;;;5056243;28;20872;-80
2023/09/04 10:59:21;;;;;;;0.40;0.30;;;37.30;59.50;;;;;;5066072;28;21004;-80
2023/09/04 11:01:47;;;;;;;0.40;0.30;;;37.30;58.30;;;;;;5067719;28;20443;-80
2023/09/04 11:04:30;;;;;;;0.40;0.30;;;37.70;58.10;;;;;;5059063;28;20809;-79
2023/09/04 11:07:30;;;;;;;0.40;0.30;;;37.50;56.80;;;;;;5067218;28;20891;-79
2023/09/04 11:10:04;;;;;;;0.40;0.30;;;37.30;54.40;;;;;;5067084;28;20480;-80
2023/09/04 11:12:36;;;;;;;0.40;0.30;;;37.10;55.40;;;;;;5068207;28;20445;-77
2023/09/04 11:15:08;;;;;;;0.40;0.30;;;37.10;57.70;;;;;;5067550;28;20444;-79
2023/09/04 11:17:34;;;;;;;0.40;0.40;;;37.30;56.60;;;;;;5056453;28;20472;-80
2023/09/04 11:20:01;;;;;;;0.40;0.30;;;37.40;56.30;;;;;;5062338;28;20463;-79
2023/09/04 11:22:28;;;;;;;0.40;0.30;;;36.80;54.80;;;;;;5062895;28;20440;-79
2023/09/04 11:24:55;;;;;;;0.40;0.30;;;36.60;57.20;;;;;;5070065;28;20440;-80
2023/09/04 11:27:23;;;;;;;0.40;0.30;;;36.50;57.00;;;;;;5064507;28;20447;-80
2023/09/04 11:29:52;;;;;;;0.40;0.30;;;36.70;56.30;;;;;;5063568;28;20487;-80
2023/09/04 11:32:19;;;;;;;0.40;0.30;;;37.20;53.40;;;;;;5067309;28;20453;-80
2023/09/04 11:34:47;;;;;;;0.40;0.30;;;37.50;54.80;;;;;;5050777;28;20551;-80
2023/09/04 11:37:14;;;;;;;0.40;0.30;;;37.10;54.10;;;;;;5057638;28;20434;-80
2023/09/04 11:39:54;;;;;;;0.40;0.30;;;37.20;53.90;;;;;;5062455;28;20463;-79
2023/09/04 11:42:22;;;;;;;0.40;0.30;;;37.50;53.60;;;;;;5061216;28;20523;-80
2023/09/04 11:44:51;;;;;;;0.40;0.30;;;37.70;52.00;;;;;;5061880;28;20437;-80
2023/09/04 11:47:18;;;;;;;0.40;0.30;;;37.80;51.50;;;;;;5059929;28;20526;-80
2023/09/04 11:49:46;;;;;;;0.40;0.30;;;37.80;51.20;;;;;;5067392;28;20559;-80
2023/09/04 11:52:13;;;;;;;0.40;0.40;;;37.40;51.30;;;;;;5062172;28;20447;-79
2023/09/04 11:54:41;;;;;;;0.40;0.30;;;37.10;54.00;;;;;;5062965;28;20523;-80
2023/09/04 11:57:09;;;;;;;0.40;0.30;;;37.10;53.90;;;;;;5056293;28;20450;-79
2023/09/04 11:59:37;;;;;;;0.40;0.30;;;37.50;52.20;;;;;;5061885;28;20464;-80
2023/09/04 12:02:06;;;;;;;0.40;0.30;;;37.50;51.20;;;;;;5063055;28;20812;-79
2023/09/04 12:04:33;;;;;;;0.40;0.30;;;37.50;49.50;;;;;;5053433;28;20963;-77
2023/09/04 12:07:01;;;;;;;0.40;0.30;;;37.00;49.30;;;;;;5054049;28;20433;-80
2023/09/04 12:09:29;;;;;;;0.40;0.30;;;37.30;49.60;;;;;;5059427;28;20487;-80
2023/09/04 12:11:56;;;;;;;0.40;0.30;;;37.30;50.70;;;;;;5064256;28;21019;-79
2023/09/04 12:14:23;;;;;;;0.40;0.30;;;37.00;49.80;;;;;;5058871;28;20927;-78
2023/09/04 12:16:50;;;;;;;0.40;0.30;;;36.80;50.00;;;;;;5055440;28;20520;-80
2023/09/04 12:19:23;;;;;;;0.40;0.30;;;37.00;49.40;;;;;;5056736;28;20911;-79
2023/09/04 12:21:50;;;;;;;0.40;0.30;;;36.90;48.30;;;;;;5064167;28;20531;-80
2023/09/04 12:24:19;;;;;;;0.40;0.30;;;36.60;52.40;;;;;;5065692;28;20464;-79
2023/09/04 12:26:50;;;;;;;0.40;0.30;;;36.80;52.00;;;;;;5067599;28;20501;-80
2023/09/04 12:29:19;;;;;;;0.40;0.30;;;36.90;51.50;;;;;;5063654;28;20535;-79
2023/09/04 12:31:48;;;;;;;0.40;0.30;;;37.30;51.50;;;;;;5066164;28;20432;-80
2023/09/04 12:34:15;;;;;;;0.40;0.30;;;37.30;50.90;;;;;;5057758;28;20456;-80
2023/09/04 12:36:43;;;;;;;0.40;0.30;;;37.40;50.80;;;;;;5065984;28;20447;-80
2023/09/04 12:39:10;;;;;;;0.40;0.30;;;36.90;49.90;;;;;;5065975;28;20552;-80
2023/09/04 12:41:37;;;;;;;0.40;0.30;;;36.70;50.70;;;;;;5053839;28;20534;-80
2023/09/04 12:44:05;;;;;;;0.40;0.40;;;36.10;53.20;;;;;;5061971;28;20465;-79
2023/09/04 12:46:31;;;;;;;0.40;0.33;;;36.10;52.00;;;;;;5065246;28;20441;-79
2023/09/04 12:48:58;;;;;;;0.40;0.30;;;36.20;50.90;;;;;;5065339;28;20984;-80
2023/09/04 12:51:25;;;;;;;1.80;1.63;;;36.30;52.70;;;;;;5064280;28;20432;-80